createdAt,value
2018-09-27T00:00:09.842Z,15.01
2018-09-27T00:02:39.512Z,15.00
2018-09-27T00:05:09.220Z,15.02
2018-09-27T00:07:38.900Z,15.08
2018-09-27T00:10:08.643Z,15.06
2018-09-27T00:12:38.341Z,15.08
2018-09-27T00:15:08.084Z,15.00
2018-09-27T00:17:37.825Z,15.01
2018-09-27T00:20:07.680Z,15.01
2018-09-27T00:22:37.372Z,14.99
2018-09-27T00:25:07.336Z,15.01
2018-09-27T00:27:37.018Z,15.02
2018-09-27T00:30:06.796Z,15.03
2018-09-27T00:32:36.460Z,15.07
2018-09-27T00:35:06.209Z,15.00
2018-09-27T00:37:35.955Z,14.96
2018-09-27T00:40:05.772Z,15.00
2018-09-27T00:42:35.432Z,15.02
2018-09-27T00:45:05.300Z,15.00
2018-09-27T00:47:34.965Z,14.94
2018-09-27T00:50:04.691Z,15.02
2018-09-27T00:52:34.302Z,14.97
2018-09-27T00:55:04.003Z,14.96
2018-09-27T00:57:33.645Z,14.97
2018-09-27T01:00:03.338Z,14.99
2018-09-27T01:02:32.950Z,15.00
2018-09-27T01:05:02.618Z,15.02
2018-09-27T01:07:32.270Z,15.02
2018-09-27T01:10:01.923Z,15.05
2018-09-27T01:12:31.545Z,15.00
2018-09-27T01:15:01.178Z,15.09
2018-09-27T01:17:30.801Z,15.09
2018-09-27T01:20:00.478Z,15.17
2018-09-27T01:22:30.150Z,15.12
2018-09-27T01:24:59.777Z,15.12
2018-09-27T01:27:29.381Z,15.13
2018-09-27T01:29:59.042Z,15.10
2018-09-27T01:32:28.674Z,15.11
2018-09-27T01:34:58.301Z,15.12
2018-09-27T01:37:27.975Z,15.11
2018-09-27T01:39:57.617Z,15.12
2018-09-27T01:42:27.230Z,15.12
2018-09-27T01:44:56.901Z,15.11
2018-09-27T01:47:26.546Z,15.10
2018-09-27T01:49:56.190Z,15.10
2018-09-27T01:52:25.811Z,15.06
2018-09-27T01:54:55.441Z,15.06
2018-09-27T01:57:25.055Z,14.98
2018-09-27T01:59:54.750Z,15.11
2018-09-27T02:02:24.606Z,15.09
2018-09-27T02:04:54.258Z,15.08
2018-09-27T02:07:23.870Z,15.05
2018-09-27T02:09:53.509Z,14.98
2018-09-27T02:12:23.114Z,15.02
2018-09-27T02:14:52.750Z,15.04
2018-09-27T02:17:22.401Z,15.03
2018-09-27T02:19:52.043Z,15.03
2018-09-27T02:22:21.761Z,15.05
2018-09-27T02:24:51.401Z,15.07
2018-09-27T02:27:21.034Z,15.05
2018-09-27T02:29:50.670Z,15.07
2018-09-27T02:32:20.321Z,15.05
2018-09-27T02:34:49.982Z,15.10
2018-09-27T02:37:19.582Z,15.09
2018-09-27T02:39:49.245Z,15.08
2018-09-27T02:42:19.023Z,15.09
2018-09-27T02:44:48.645Z,15.10
2018-09-27T02:47:18.449Z,15.07
2018-09-27T02:49:48.091Z,15.07
2018-09-27T02:52:17.754Z,15.07
2018-09-27T02:54:47.393Z,15.05
2018-09-27T02:57:17.014Z,15.05
2018-09-27T02:59:46.665Z,15.03
2018-09-27T03:02:16.286Z,15.00
2018-09-27T03:04:45.941Z,15.02
2018-09-27T03:07:15.582Z,15.01
2018-09-27T03:09:45.212Z,14.94
2018-09-27T03:12:14.846Z,14.93
2018-09-27T03:14:44.513Z,14.96
2018-09-27T03:17:14.145Z,14.97
2018-09-27T03:19:43.815Z,14.97
2018-09-27T03:22:13.455Z,14.99
2018-09-27T03:24:43.119Z,14.99
2018-09-27T03:27:12.745Z,14.98
2018-09-27T03:29:42.376Z,15.02
2018-09-27T03:32:11.989Z,15.03
2018-09-27T03:34:41.654Z,14.98
2018-09-27T03:37:11.280Z,15.08
2018-09-27T03:39:40.984Z,15.07
2018-09-27T03:42:10.608Z,15.03
2018-09-27T03:44:40.245Z,15.02
2018-09-27T03:47:09.870Z,14.97
2018-09-27T03:49:39.520Z,14.95
2018-09-27T03:52:09.130Z,14.96
2018-09-27T03:54:38.794Z,14.95
2018-09-27T03:57:08.518Z,14.92
2018-09-27T03:59:38.187Z,14.92
2018-09-27T04:02:08.137Z,15.04
2018-09-27T04:04:37.786Z,15.00
2018-09-27T04:07:07.453Z,14.97
2018-09-27T04:09:37.126Z,14.95
2018-09-27T04:12:06.786Z,15.00
2018-09-27T04:14:36.438Z,14.92
2018-09-27T04:17:06.115Z,14.92
2018-09-27T04:19:35.779Z,14.89
2018-09-27T04:22:05.413Z,14.87
2018-09-27T04:24:35.150Z,14.87
2018-09-27T04:27:04.823Z,14.85
2018-09-27T04:29:34.733Z,14.90
2018-09-27T04:32:04.373Z,14.90
2018-09-27T04:34:34.067Z,14.88
2018-09-27T04:37:03.693Z,14.84
2018-09-27T04:39:33.374Z,14.86
2018-09-27T04:42:03.043Z,14.86
2018-09-27T04:44:32.650Z,14.83
2018-09-27T04:47:02.275Z,14.84
2018-09-27T04:49:31.933Z,14.86
2018-09-27T04:52:01.560Z,14.88
2018-09-27T04:54:31.302Z,14.85
2018-09-27T04:57:00.877Z,14.84
2018-09-27T04:59:30.506Z,14.77
2018-09-27T05:02:00.227Z,14.74
2018-09-27T05:04:29.851Z,14.78
2018-09-27T05:06:59.483Z,14.77
2018-09-27T05:09:29.196Z,14.75
2018-09-27T05:11:58.828Z,14.73
2018-09-27T05:14:28.448Z,14.75
2018-09-27T05:16:58.111Z,14.77
2018-09-27T05:19:27.743Z,14.85
2018-09-27T05:21:57.361Z,14.79
2018-09-27T05:24:27.038Z,14.78
2018-09-27T05:26:56.653Z,14.92
2018-09-27T05:29:26.338Z,14.85
2018-09-27T05:31:56.250Z,14.88
2018-09-27T05:34:25.862Z,14.81
2018-09-27T05:36:55.545Z,14.86
2018-09-27T05:39:25.341Z,14.86
2018-09-27T05:41:55.050Z,14.86
2018-09-27T05:44:24.666Z,14.87
2018-09-27T05:46:54.338Z,14.92
2018-09-27T05:49:23.950Z,14.93
2018-09-27T05:51:53.562Z,14.94
2018-09-27T05:54:23.225Z,14.97
2018-09-27T05:56:52.865Z,15.01
2018-09-27T05:59:22.490Z,15.00
2018-09-27T06:01:52.210Z,15.03
2018-09-27T06:04:21.795Z,15.03
2018-09-27T06:06:51.402Z,15.06
2018-09-27T06:09:21.926Z,15.16
2018-09-27T06:11:51.548Z,15.11
2018-09-27T06:14:21.211Z,15.18
2018-09-27T06:16:50.906Z,15.13
2018-09-27T06:19:20.573Z,15.23
2018-09-27T06:21:50.182Z,15.25
2018-09-27T06:24:19.821Z,15.17
2018-09-27T06:26:49.437Z,15.13
2018-09-27T06:29:19.097Z,15.13
2018-09-27T06:31:48.752Z,15.16
2018-09-27T06:34:18.373Z,15.21
2018-09-27T06:36:48.060Z,15.27
2018-09-27T06:39:17.670Z,15.42
2018-09-27T06:41:47.322Z,15.33
2018-09-27T06:44:16.990Z,15.39
2018-09-27T06:46:46.604Z,15.47
2018-09-27T06:49:16.226Z,15.56
2018-09-27T06:51:45.893Z,15.52
2018-09-27T06:54:15.510Z,15.50
2018-09-27T06:56:45.232Z,15.46
2018-09-27T06:59:14.823Z,15.48
2018-09-27T07:01:44.445Z,15.47
2018-09-27T07:04:14.590Z,15.46
2018-09-27T07:06:44.203Z,15.52
2018-09-27T07:09:14.470Z,15.47
2018-09-27T07:11:44.061Z,15.47
2018-09-27T07:14:13.673Z,15.48
2018-09-27T07:16:43.349Z,15.59
2018-09-27T07:19:12.969Z,15.63
2018-09-27T07:21:42.642Z,15.71
2018-09-27T07:24:12.297Z,15.67
2018-09-27T07:26:42.039Z,15.72
2018-09-27T07:29:11.585Z,15.67
2018-09-27T07:31:41.259Z,15.66
2018-09-27T07:34:10.866Z,15.65
2018-09-27T07:36:40.586Z,15.75
2018-09-27T07:39:11.657Z,15.76
2018-09-27T07:41:41.525Z,15.75
2018-09-27T07:44:12.438Z,15.67
2018-09-27T07:46:42.055Z,15.74
2018-09-27T07:49:11.665Z,15.85
2018-09-27T07:51:41.668Z,15.68
2018-09-27T07:54:11.373Z,15.62
2018-09-27T07:56:41.076Z,15.66
2018-09-27T07:59:10.745Z,15.74
2018-09-27T08:01:40.399Z,15.85
2018-09-27T08:04:10.140Z,16.02
2018-09-27T08:06:39.747Z,16.11
2018-09-27T08:09:09.933Z,16.18
2018-09-27T08:11:40.860Z,16.19
2018-09-27T08:14:10.406Z,16.21
2018-09-27T08:16:40.132Z,16.23
2018-09-27T08:19:09.765Z,16.33
2018-09-27T08:21:39.490Z,16.26
2018-09-27T08:24:09.137Z,16.25
2018-09-27T08:26:38.829Z,16.27
2018-09-27T08:29:08.505Z,16.39
2018-09-27T08:31:38.184Z,16.53
2018-09-27T08:34:07.806Z,16.63
2018-09-27T08:36:37.488Z,16.59
2018-09-27T08:39:09.530Z,16.77
2018-09-27T08:41:39.591Z,16.97
2018-09-27T08:44:10.308Z,17.19
2018-09-27T08:46:40.273Z,17.34
2018-09-27T08:49:09.915Z,17.35
2018-09-27T08:51:39.707Z,17.62
2018-09-27T08:54:09.377Z,17.73
2018-09-27T08:56:39.016Z,17.97
2018-09-27T08:59:08.661Z,18.21
2018-09-27T09:01:38.417Z,18.24
2018-09-27T09:04:08.283Z,18.15
2018-09-27T09:06:37.923Z,18.02
2018-09-27T09:09:10.192Z,18.21
2018-09-27T09:11:39.824Z,18.29
2018-09-27T09:14:10.258Z,18.32
2018-09-27T09:16:39.894Z,18.52
2018-09-27T09:19:09.520Z,18.67
2018-09-27T09:21:39.239Z,18.90
2018-09-27T09:24:08.873Z,19.05
2018-09-27T09:26:38.516Z,19.24
2018-09-27T09:29:08.528Z,19.08
2018-09-27T09:31:38.173Z,19.01
2018-09-27T09:34:07.848Z,19.22
2018-09-27T09:36:37.536Z,19.37
2018-09-27T09:39:08.439Z,19.28
2018-09-27T09:41:38.199Z,19.36
2018-09-27T09:44:07.881Z,19.29
2018-09-27T09:46:37.524Z,19.38
2018-09-27T09:49:06.892Z,19.38
2018-09-27T09:51:36.526Z,19.63
2018-09-27T09:54:06.214Z,19.83
2018-09-27T09:56:35.848Z,19.92
2018-09-27T09:59:05.620Z,19.95
2018-09-27T10:01:35.284Z,19.87
2018-09-27T10:04:04.933Z,19.86
2018-09-27T10:06:34.584Z,20.06
2018-09-27T10:09:05.075Z,20.04
2018-09-27T10:11:34.888Z,20.22
2018-09-27T10:14:04.567Z,20.22
2018-09-27T10:16:34.411Z,20.19
2018-09-27T10:19:04.092Z,20.35
2018-09-27T10:21:33.806Z,20.58
2018-09-27T10:24:03.664Z,20.64
2018-09-27T10:26:33.313Z,20.83
2018-09-27T10:29:02.956Z,20.82
2018-09-27T10:31:32.615Z,20.95
2018-09-27T10:34:02.280Z,20.92
2018-09-27T10:36:32.023Z,20.91
2018-09-27T10:39:01.659Z,21.03
2018-09-27T10:41:31.324Z,21.06
2018-09-27T10:44:00.956Z,21.14
2018-09-27T10:46:30.618Z,21.26
2018-09-27T10:49:00.492Z,21.52
2018-09-27T10:51:30.246Z,21.60
2018-09-27T10:53:59.824Z,21.63
2018-09-27T10:56:29.509Z,21.63
2018-09-27T10:58:59.148Z,21.67
2018-09-27T11:01:28.817Z,21.74
2018-09-27T11:03:58.512Z,21.59
2018-09-27T11:06:28.139Z,21.87
2018-09-27T11:08:57.879Z,22.03
2018-09-27T11:11:27.540Z,22.17
2018-09-27T11:13:57.177Z,22.12
2018-09-27T11:16:26.864Z,22.35
2018-09-27T11:18:56.482Z,22.09
2018-09-27T11:21:26.124Z,22.14
2018-09-27T11:23:55.788Z,22.26
2018-09-27T11:26:25.472Z,22.28
2018-09-27T11:29:00.140Z,22.53
2018-09-27T11:31:34.996Z,22.55
2018-09-27T11:34:04.656Z,22.82
2018-09-27T11:36:34.343Z,22.85
2018-09-27T11:39:05.388Z,23.02
2018-09-27T11:41:35.038Z,23.09
2018-09-27T11:44:04.743Z,23.17
2018-09-27T11:46:34.488Z,23.30
2018-09-27T11:49:04.225Z,23.49
2018-09-27T11:51:33.828Z,23.51
2018-09-27T11:54:03.466Z,23.73
2018-09-27T11:56:33.120Z,23.69
2018-09-27T11:59:02.806Z,23.93
2018-09-27T12:01:32.771Z,23.90
2018-09-27T12:04:02.384Z,24.03
2018-09-27T12:06:32.071Z,24.12
2018-09-27T12:09:01.712Z,24.36
2018-09-27T12:11:31.373Z,24.47
2018-09-27T12:14:00.988Z,24.38
2018-09-27T12:16:30.664Z,24.41
2018-09-27T12:19:00.305Z,24.58
2018-09-27T12:21:29.972Z,24.45
2018-09-27T12:23:59.608Z,24.68
2018-09-27T12:26:29.281Z,24.68
2018-09-27T12:28:58.896Z,24.60
2018-09-27T12:31:28.545Z,24.57
2018-09-27T12:33:58.224Z,24.70
2018-09-27T12:36:27.921Z,24.92
2018-09-27T12:38:57.719Z,24.97
2018-09-27T12:41:27.372Z,25.07
2018-09-27T12:43:57.036Z,25.04
2018-09-27T12:46:26.754Z,24.86
2018-09-27T12:48:56.405Z,25.16
2018-09-27T12:51:26.064Z,25.32
2018-09-27T12:53:55.816Z,25.43
2018-09-27T12:56:25.492Z,25.58
2018-09-27T12:58:55.141Z,25.69
2018-09-27T13:01:24.934Z,25.50
2018-09-27T13:03:54.628Z,25.53
2018-09-27T13:06:24.257Z,25.68
2018-09-27T13:08:53.903Z,25.72
2018-09-27T13:11:23.584Z,25.82
2018-09-27T13:13:53.208Z,25.98
2018-09-27T13:16:22.877Z,25.88
2018-09-27T13:18:52.567Z,26.06
2018-09-27T13:21:22.240Z,26.05
2018-09-27T13:23:51.901Z,26.02
2018-09-27T13:26:21.542Z,26.01
2018-09-27T13:28:51.216Z,26.06
2018-09-27T13:31:20.846Z,26.06
2018-09-27T13:33:50.520Z,26.24
2018-09-27T13:36:20.244Z,26.26
2018-09-27T13:38:49.877Z,26.34
2018-09-27T13:41:19.499Z,26.30
2018-09-27T13:43:49.180Z,26.14
2018-09-27T13:46:18.878Z,26.26
2018-09-27T13:48:48.491Z,26.25
2018-09-27T13:51:18.172Z,26.32
2018-09-27T13:53:47.788Z,26.36
2018-09-27T13:56:17.596Z,26.43
2018-09-27T13:58:47.255Z,26.69
2018-09-27T14:01:16.920Z,26.73
2018-09-27T14:03:46.576Z,26.60
2018-09-27T14:06:16.248Z,26.43
2018-09-27T14:08:45.880Z,26.37
2018-09-27T14:11:15.588Z,26.43
2018-09-27T14:13:45.270Z,26.45
2018-09-27T14:16:14.900Z,26.49
2018-09-27T14:18:44.527Z,26.49
2018-09-27T14:21:14.217Z,26.36
2018-09-27T14:23:43.831Z,26.52
2018-09-27T14:26:13.464Z,26.48
2018-09-27T14:28:43.176Z,26.44
2018-09-27T14:31:12.797Z,26.44
2018-09-27T14:33:42.427Z,26.52
2018-09-27T14:36:12.122Z,26.33
2018-09-27T14:38:41.773Z,26.23
2018-09-27T14:41:11.432Z,26.17
2018-09-27T14:43:41.112Z,26.06
2018-09-27T14:46:10.752Z,25.90
2018-09-27T14:48:40.427Z,25.65
2018-09-27T14:51:10.124Z,25.57
2018-09-27T14:53:39.832Z,25.43
2018-09-27T14:56:09.909Z,25.32
2018-09-27T14:58:39.651Z,25.38
2018-09-27T15:01:09.712Z,25.23
2018-09-27T15:03:39.548Z,25.09
2018-09-27T15:06:09.184Z,25.06
2018-09-27T15:08:38.828Z,25.00
2018-09-27T15:11:08.516Z,24.96
2018-09-27T15:13:38.157Z,24.84
2018-09-27T15:16:08.117Z,24.78
2018-09-27T15:18:37.783Z,24.71
2018-09-27T15:21:07.474Z,24.61
2018-09-27T15:23:37.226Z,24.58
2018-09-27T15:26:06.825Z,24.56
2018-09-27T15:28:36.484Z,24.55
2018-09-27T15:31:06.165Z,24.41
2018-09-27T15:33:35.903Z,24.31
2018-09-27T15:36:05.864Z,24.29
2018-09-27T15:38:35.539Z,24.28
2018-09-27T15:41:05.196Z,24.25
2018-09-27T15:43:34.841Z,24.16
2018-09-27T15:46:04.520Z,24.10
2018-09-27T15:48:34.152Z,24.03
2018-09-27T15:51:03.816Z,24.02
2018-09-27T15:53:33.504Z,23.95
2018-09-27T15:56:03.163Z,23.86
2018-09-27T15:58:32.859Z,23.79
2018-09-27T16:01:02.746Z,23.69
2018-09-27T16:03:32.508Z,23.52
2018-09-27T16:06:02.184Z,23.42
2018-09-27T16:08:31.855Z,23.29
2018-09-27T16:11:01.525Z,23.25
2018-09-27T16:13:31.161Z,23.05
2018-09-27T16:16:00.839Z,23.01
2018-09-27T16:18:30.480Z,22.97
2018-09-27T16:21:00.164Z,22.91
2018-09-27T16:23:30.704Z,22.86
2018-09-27T16:26:00.409Z,22.82
2018-09-27T16:28:30.049Z,22.73
2018-09-27T16:30:59.738Z,22.59
2018-09-27T16:33:29.474Z,22.51
2018-09-27T16:35:59.388Z,22.36
2018-09-27T16:38:29.044Z,22.33
2018-09-27T16:40:58.685Z,22.13
2018-09-27T16:43:28.360Z,22.01
2018-09-27T16:45:57.984Z,21.91
2018-09-27T16:48:27.652Z,21.82
2018-09-27T16:50:57.348Z,21.73
2018-09-27T16:53:27.062Z,21.54
2018-09-27T16:55:56.689Z,21.27
2018-09-27T16:58:26.350Z,21.22
2018-09-27T17:00:55.984Z,21.08
2018-09-27T17:03:25.627Z,21.01
2018-09-27T17:05:55.249Z,20.99
2018-09-27T17:08:24.879Z,20.94
2018-09-27T17:10:54.495Z,20.90
2018-09-27T17:13:24.132Z,20.79
2018-09-27T17:15:53.779Z,20.73
2018-09-27T17:18:23.444Z,20.75
2018-09-27T17:20:53.072Z,20.70
2018-09-27T17:23:22.885Z,20.51
2018-09-27T17:25:52.744Z,20.39
2018-09-27T17:28:22.444Z,20.29
2018-09-27T17:30:52.099Z,20.22
2018-09-27T17:33:22.250Z,20.14
2018-09-27T17:35:51.937Z,20.05
2018-09-27T17:38:21.625Z,19.91
2018-09-27T17:40:51.298Z,19.82
2018-09-27T17:43:20.988Z,19.79
2018-09-27T17:45:50.787Z,19.63
2018-09-27T17:48:20.496Z,19.59
2018-09-27T17:50:50.156Z,19.59
2018-09-27T17:53:19.972Z,19.50
2018-09-27T17:55:49.527Z,19.44
2018-09-27T17:58:19.185Z,19.37
2018-09-27T18:00:49.028Z,19.20
2018-09-27T18:03:18.739Z,19.01
2018-09-27T18:05:48.378Z,18.83
2018-09-27T18:08:18.039Z,18.80
2018-09-27T18:10:47.679Z,18.70
2018-09-27T18:13:17.345Z,18.58
2018-09-27T18:15:46.985Z,18.35
2018-09-27T18:18:16.640Z,18.33
2018-09-27T18:20:46.325Z,18.38
2018-09-27T18:23:16.064Z,18.29
2018-09-27T18:25:45.875Z,18.25
2018-09-27T18:28:15.440Z,18.12
2018-09-27T18:30:45.083Z,18.10
2018-09-27T18:33:14.763Z,17.99
2018-09-27T18:35:44.413Z,17.97
2018-09-27T18:38:14.272Z,17.89
2018-09-27T18:40:43.821Z,17.77
2018-09-27T18:43:13.517Z,17.73
2018-09-27T18:45:43.457Z,17.63
2018-09-27T18:48:13.148Z,17.53
2018-09-27T18:50:42.839Z,17.49
2018-09-27T18:53:12.687Z,17.39
2018-09-27T18:55:42.351Z,17.31
2018-09-27T18:58:12.034Z,17.24
2018-09-27T19:00:41.704Z,17.12
2018-09-27T19:03:11.436Z,17.11
2018-09-27T19:05:41.105Z,17.11
2018-09-27T19:08:10.826Z,16.95
2018-09-27T19:10:40.505Z,16.84
2018-09-27T19:13:10.225Z,16.77
2018-09-27T19:15:39.860Z,16.57
2018-09-27T19:18:09.508Z,16.51
2018-09-27T19:20:39.144Z,16.46
2018-09-27T19:23:08.815Z,16.55
2018-09-27T19:25:38.515Z,16.43
2018-09-27T19:28:08.196Z,16.47
2018-09-27T19:30:37.877Z,16.49
2018-09-27T19:33:07.556Z,16.41
2018-09-27T19:35:37.220Z,16.34
2018-09-27T19:38:06.944Z,16.36
2018-09-27T19:40:36.584Z,16.27
2018-09-27T19:43:06.311Z,16.32
2018-09-27T19:45:35.988Z,16.09
2018-09-27T19:48:05.660Z,15.92
2018-09-27T19:50:35.311Z,16.01
2018-09-27T19:53:04.988Z,15.94
2018-09-27T19:55:34.659Z,15.92
2018-09-27T19:58:04.374Z,15.80
2018-09-27T20:00:33.990Z,15.56
2018-09-27T20:03:03.654Z,15.64
2018-09-27T20:05:33.413Z,15.48
2018-09-27T20:08:03.046Z,15.50
2018-09-27T20:10:32.711Z,15.53
2018-09-27T20:13:02.713Z,15.41
2018-09-27T20:15:32.676Z,15.38
2018-09-27T20:18:02.736Z,15.35
2018-09-27T20:20:32.395Z,15.39
2018-09-27T20:23:02.140Z,15.37
2018-09-27T20:25:31.737Z,15.22
2018-09-27T20:28:01.414Z,15.22
2018-09-27T20:30:31.028Z,15.24
2018-09-27T20:33:00.675Z,15.25
2018-09-27T20:35:30.300Z,15.21
2018-09-27T20:37:59.955Z,15.14
2018-09-27T20:40:29.605Z,15.07
2018-09-27T20:42:59.270Z,14.99
2018-09-27T20:45:28.883Z,14.94
2018-09-27T20:47:58.509Z,14.87
2018-09-27T20:50:28.188Z,14.85
2018-09-27T20:52:57.816Z,14.85
2018-09-27T20:55:27.467Z,14.72
2018-09-27T20:57:57.148Z,14.59
2018-09-27T21:00:26.792Z,14.55
2018-09-27T21:02:56.447Z,14.42
2018-09-27T21:05:26.072Z,14.45
2018-09-27T21:07:55.740Z,14.42
2018-09-27T21:10:25.384Z,14.35
2018-09-27T21:12:55.038Z,14.30
2018-09-27T21:15:24.668Z,14.09
2018-09-27T21:17:54.320Z,14.03
2018-09-27T21:20:23.951Z,13.98
2018-09-27T21:22:53.592Z,14.03
2018-09-27T21:25:23.235Z,13.91
2018-09-27T21:27:52.868Z,13.85
2018-09-27T21:30:22.600Z,13.94
2018-09-27T21:32:52.252Z,13.93
2018-09-27T21:35:21.872Z,14.01
2018-09-27T21:37:51.508Z,13.96
2018-09-27T21:40:21.140Z,13.90
2018-09-27T21:42:50.792Z,13.74
2018-09-27T21:45:20.413Z,13.83
2018-09-27T21:47:50.123Z,13.81
2018-09-27T21:50:19.806Z,13.80
2018-09-27T21:52:49.449Z,13.78
2018-09-27T21:55:19.115Z,13.70
2018-09-27T21:57:48.754Z,13.63
2018-09-27T22:00:18.541Z,13.51
2018-09-27T22:02:48.169Z,13.46
2018-09-27T22:05:17.823Z,13.48
2018-09-27T22:07:47.449Z,13.32
2018-09-27T22:10:17.143Z,13.31
2018-09-27T22:12:46.818Z,13.36
2018-09-27T22:15:16.449Z,13.38
2018-09-27T22:17:46.112Z,13.35
2018-09-27T22:20:15.744Z,13.28
2018-09-27T22:22:45.376Z,13.23
2018-09-27T22:25:15.097Z,13.21
2018-09-27T22:27:44.722Z,13.27
2018-09-27T22:30:14.400Z,13.23
2018-09-27T22:32:44.098Z,13.24
2018-09-27T22:35:13.808Z,13.15
2018-09-27T22:37:43.433Z,13.19
2018-09-27T22:40:13.149Z,13.20
2018-09-27T22:42:42.781Z,13.25
2018-09-27T22:45:12.414Z,13.23
2018-09-27T22:47:42.130Z,13.14
2018-09-27T22:50:11.804Z,13.05
2018-09-27T22:52:41.539Z,13.03
2018-09-27T22:55:11.233Z,13.11
2018-09-27T22:57:40.869Z,13.05
2018-09-27T23:00:10.568Z,13.04
2018-09-27T23:02:40.234Z,12.97
2018-09-27T23:05:09.901Z,12.82
2018-09-27T23:07:39.529Z,12.86
2018-09-27T23:10:09.249Z,12.75
2018-09-27T23:12:38.936Z,12.84
2018-09-27T23:15:08.697Z,13.01
2018-09-27T23:17:38.392Z,12.97
2018-09-27T23:20:09.736Z,12.99
2018-09-27T23:22:39.593Z,13.06
2018-09-27T23:25:09.456Z,12.94
2018-09-27T23:27:39.173Z,12.91
2018-09-27T23:30:08.909Z,12.83
2018-09-27T23:32:38.549Z,12.77
2018-09-27T23:35:08.316Z,12.81
2018-09-27T23:37:37.948Z,12.80
2018-09-27T23:40:07.621Z,12.75
2018-09-27T23:42:37.324Z,12.69
2018-09-27T23:45:06.988Z,12.64
2018-09-27T23:47:36.611Z,12.51
2018-09-27T23:50:06.342Z,12.48
2018-09-27T23:52:35.978Z,12.35
2018-09-27T23:55:05.673Z,12.34
2018-09-27T23:57:35.298Z,12.39
